KOCW/OCW METAR and TAF weather

Enter ICAO airport designator
Station Type Date Time Source
KOCW METAR 2021/05/14 19:15 UTC NOAA

KOCW 141915Z AUTO 02009KT 7SM SCT090 22/00 A3023 RMK AO2 T02161002


Station Type Date Time Source
KOCW Decoded METAR 2021/05/14 19:15 UTC NOAA

Washington, Warren Field Airport, NC, United States (KOCW) 35-34-14N 077-02-59W
May 14, 2021 - 03:15 PM EDT / 2021.05.14 1915 UTC
Wind: from the NNE (020 degrees) at 10 MPH (9 KT):0
Visibility: 7 mile(s):0
Sky conditions: partly cloudy
Temperature: 70.9 F (21.6 C)
Dew Point: 31.6 F (-0.2 C)
Relative Humidity: 23%
Pressure (altimeter): 30.23 in. Hg (1023 hPa)
ob: KOCW 141915Z AUTO 02009KT 7SM SCT090 22/00 A3023 RMK AO2 T02161002
cycle: 19

Station Type Date Time Source
KOCW TAF UTC NOAA

Error!

Example: see airport list